Time;durP1;ratioP1;P1;durP2;ratioP2;P2;SDS_P1;SDS_P2;PMS_P1;PMS_P2;Temp;Humidity;BMP_temperature;BMP_pressure;BME280_temperature;BME280_humidity;BME280_pressure;Samples;Min_cycle;Max_cycle;Signal;HPM_P1;HPM_P2
2022/08/03 04:22:51;;;;;;;6.47;4.88;;;;;;;16.60;89.67;100163.06;5089267;28;20362;-67
2022/08/03 04:25:20;;;;;;;7.47;5.57;;;;;;;16.64;89.77;100158.91;5089207;28;20504;-67
2022/08/03 04:27:51;;;;;;;8.25;6.18;;;;;;;16.64;89.66;100161.59;5089194;28;20093;-66
2022/08/03 04:30:17;;;;;;;9.23;5.88;;;;;;;16.62;89.80;100153.72;5088741;28;20392;-67
2022/08/03 04:32:49;;;;;;;7.97;6.00;;;;;;;16.66;89.65;100160.34;5089262;28;20033;-66
2022/08/03 04:35:15;;;;;;;10.68;6.60;;;;;;;16.66;89.66;100159.50;5116802;22;20061;-64
2022/08/03 04:37:46;;;;;;;7.72;6.15;;;;;;;16.68;89.75;100160.13;5109061;28;20044;-65
2022/08/03 04:40:20;;;;;;;8.18;5.70;;;;;;;16.70;89.51;100160.78;5108668;28;20121;-63
2022/08/03 04:42:48;;;;;;;9.48;5.47;;;;;;;16.69;89.53;100173.38;5108935;28;20071;-64
2022/08/03 04:45:15;;;;;;;8.60;5.68;;;;;;;16.75;89.51;100175.19;5108751;28;20043;-65
2022/08/03 04:47:41;;;;;;;7.90;5.60;;;;;;;16.81;89.65;100166.28;5108679;28;20035;-61
2022/08/03 04:50:07;;;;;;;8.63;5.72;;;;;;;16.86;89.55;100165.63;5108273;28;20090;-50
2022/08/03 04:52:33;;;;;;;7.78;5.53;;;;;;;16.89;88.59;100170.59;5108595;28;20111;-48
2022/08/03 04:54:59;;;;;;;7.82;5.50;;;;;;;16.94;88.50;100164.56;5108491;28;20063;-48
2022/08/03 04:57:24;;;;;;;8.38;6.28;;;;;;;16.99;88.38;100164.72;5108490;28;20063;-55
2022/08/03 04:59:53;;;;;;;6.82;5.82;;;;;;;17.00;88.08;100163.69;5108161;28;20034;-51
2022/08/03 05:02:20;;;;;;;8.60;5.07;;;;;;;17.05;87.67;100172.75;5108304;28;20044;-53
2022/08/03 05:04:45;;;;;;;9.80;5.95;;;;;;;17.11;88.26;100168.38;5108179;28;20096;-49
2022/08/03 05:07:12;;;;;;;7.93;5.75;;;;;;;17.19;87.88;100172.66;5108216;28;20031;-48
2022/08/03 05:09:37;;;;;;;7.70;5.60;;;;;;;17.25;87.94;100174.50;5107680;28;20039;-48
2022/08/03 05:12:04;;;;;;;7.82;5.50;;;;;;;17.27;86.84;100169.69;5107966;28;20039;-48
2022/08/03 05:14:30;;;;;;;8.63;5.78;;;;;;;17.39;85.31;100169.81;5108076;28;20046;-48
2022/08/03 05:16:55;;;;;;;10.73;6.50;;;;;;;17.48;83.81;100180.13;5094883;28;20461;-49
2022/08/03 05:19:21;;;;;;;11.45;7.38;;;;;;;17.53;82.82;100172.19;5077128;28;20119;-51
2022/08/03 05:21:46;;;;;;;10.93;7.88;;;;;;;17.66;82.99;100183.88;5097966;28;20032;-47
2022/08/03 05:24:11;;;;;;;12.77;8.02;;;;;;;17.73;82.36;100180.09;5096485;28;20123;-51
2022/08/03 05:26:37;;;;;;;9.80;6.10;;;;;;;17.84;81.84;100189.34;5098978;28;20035;-51
2022/08/03 05:29:02;;;;;;;7.47;5.43;;;;;;;17.94;80.96;100186.16;5097261;28;20409;-47
2022/08/03 05:31:28;;;;;;;8.02;6.28;;;;;;;18.02;81.72;100191.25;5096755;28;20043;-48
2022/08/03 05:33:53;;;;;;;8.77;5.60;;;;;;;18.12;80.71;100189.66;5086384;28;20044;-49
2022/08/03 05:36:19;;;;;;;9.52;6.78;;;;;;;18.23;80.00;100188.09;5064759;28;20032;-50
2022/08/03 05:38:44;;;;;;;8.45;5.38;;;;;;;18.34;79.70;100186.53;5083426;28;20454;-50
2022/08/03 05:41:10;;;;;;;12.73;6.00;;;;;;;18.53;78.98;100193.56;5066321;28;20086;-50
2022/08/03 05:43:35;;;;;;;13.48;6.00;;;;;;;18.61;80.48;100197.81;5082380;28;20086;-55
2022/08/03 05:46:00;;;;;;;10.15;5.93;;;;;;;18.72;79.27;100198.97;5083957;28;20036;-53
2022/08/03 05:48:26;;;;;;;12.98;6.30;;;;;;;18.82;78.56;100199.25;5071810;28;20043;-55
2022/08/03 05:50:51;;;;;;;8.07;5.57;;;;;;;18.88;77.88;100193.75;5093550;28;20075;-50
2022/08/03 05:53:17;;;;;;;11.82;6.18;;;;;;;18.96;77.04;100196.13;5094184;28;20086;-47
2022/08/03 05:55:42;;;;;;;13.65;5.15;;;;;;;19.06;75.87;100197.47;5093993;28;20040;-47
2022/08/03 05:58:08;;;;;;;7.00;5.03;;;;;;;19.17;75.89;100196.66;5075687;28;20032;-49
2022/08/03 06:00:33;;;;;;;11.25;5.13;;;;;;;19.24;75.10;100194.69;5093427;28;20127;-47
2022/08/03 06:02:59;;;;;;;5.78;4.63;;;;;;;19.38;74.26;100201.53;5075664;28;20118;-55
2022/08/03 06:05:27;;;;;;;6.10;4.50;;;;;;;19.47;74.11;100200.13;5093566;28;20070;-50
2022/08/03 06:07:53;;;;;;;5.60;4.53;;;;;;;19.49;74.87;100194.50;5093629;28;20238;-50
2022/08/03 06:10:19;;;;;;;7.38;4.20;;;;;;;19.60;74.97;100206.41;5093301;28;20040;-48
2022/08/03 06:12:46;;;;;;;9.52;4.57;;;;;;;19.68;74.10;100196.06;5087107;28;20048;-51
2022/08/03 06:15:12;;;;;;;;;;;;;;;19.75;74.11;100191.38;5093817;28;20119;-52
2022/08/03 06:17:46;;;;;;;7.40;4.57;;;;;;;19.84;74.62;100193.75;5093533;28;20056;-48
2022/08/03 06:20:11;;;;;;;14.82;5.30;;;;;;;19.92;73.93;100194.19;5084266;28;20039;-47
2022/08/03 06:22:36;;;;;;;8.80;4.55;;;;;;;20.01;72.81;100184.66;5073075;28;20032;-48
2022/08/03 06:25:02;;;;;;;7.10;4.15;;;;;;;20.27;69.94;100191.44;5073068;28;20029;-53
2022/08/03 06:27:28;;;;;;;6.95;4.05;;;;;;;20.38;69.28;100186.25;5057085;28;20040;-47
2022/08/03 06:29:53;;;;;;;8.75;4.50;;;;;;;20.51;68.67;100186.84;5089990;28;20499;-47
2022/08/03 06:32:21;;;;;;;6.63;4.00;;;;;;;20.67;67.47;100185.28;5093152;28;20181;-52
2022/08/03 06:34:47;;;;;;;7.80;3.97;;;;;;;20.88;67.50;100193.78;5092800;28;20040;-47
2022/08/03 06:37:13;;;;;;;6.72;4.18;;;;;;;20.99;66.56;100195.59;5093010;28;20044;-51
2022/08/03 06:39:38;;;;;;;4.43;3.72;;;;;;;21.08;66.21;100191.44;5092674;28;20032;-49
2022/08/03 06:42:04;;;;;;;14.88;7.72;;;;;;;21.28;65.79;100194.53;5092306;28;20039;-55
2022/08/03 06:44:29;;;;;;;8.55;4.30;;;;;;;21.32;65.69;100193.00;5083484;28;20027;-51
2022/08/03 06:46:55;;;;;;;6.60;3.80;;;;;;;21.38;66.32;100200.13;5086465;28;20115;-51
2022/08/03 06:49:20;;;;;;;4.30;3.00;;;;;;;21.43;66.15;100193.16;5082328;28;20031;-53
2022/08/03 06:51:46;;;;;;;5.43;3.83;;;;;;;21.47;65.64;100200.56;5082460;28;20484;-52
2022/08/03 06:54:12;;;;;;;11.10;4.70;;;;;;;21.53;66.10;100206.88;5081133;28;20492;-48
2022/08/03 06:56:37;;;;;;;8.07;4.18;;;;;;;21.59;65.66;100200.47;5082865;28;20047;-50
2022/08/03 06:59:02;;;;;;;5.50;3.63;;;;;;;21.71;65.87;100205.78;5081697;28;20090;-51
2022/08/03 07:01:28;;;;;;;8.05;4.05;;;;;;;21.81;64.24;100203.25;5081619;28;20024;-50
2022/08/03 07:03:55;;;;;;;6.82;3.63;;;;;;;22.05;61.92;100198.47;5082915;28;20035;-51
2022/08/03 07:06:20;;;;;;;4.07;3.55;;;;;;;22.13;62.10;100192.63;5081392;28;20038;-55
2022/08/03 07:08:46;;;;;;;7.13;3.92;;;;;;;22.15;63.30;100204.03;5080817;28;20388;-55
2022/08/03 07:11:11;;;;;;;5.28;4.25;;;;;;;22.25;62.66;100195.22;5062602;28;20409;-50
2022/08/03 07:13:37;;;;;;;6.88;3.33;;;;;;;22.25;63.36;100197.94;5075066;28;20094;-55
2022/08/03 07:16:02;;;;;;;6.93;4.13;;;;;;;22.36;63.01;100199.69;5081859;28;20028;-54
2022/08/03 07:18:27;;;;;;;5.95;4.00;;;;;;;22.52;62.44;100192.59;5082967;28;20507;-49
2022/08/03 07:20:53;;;;;;;6.68;4.05;;;;;;;22.61;61.73;100194.59;5076097;28;20045;-55
2022/08/03 07:23:18;;;;;;;6.07;3.85;;;;;;;22.77;60.61;100198.31;5092412;28;20066;-49
2022/08/03 07:25:44;;;;;;;9.18;5.38;;;;;;;22.87;60.83;100200.34;5082053;28;20446;-48
2022/08/03 07:28:09;;;;;;;10.95;5.57;;;;;;;23.01;60.16;100201.56;5081434;28;20081;-51
2022/08/03 07:30:34;;;;;;;8.75;3.35;;;;;;;23.02;61.26;100198.59;5079469;28;20032;-54
2022/08/03 07:33:03;;;;;;;6.15;3.38;;;;;;;23.13;59.26;100201.41;5071906;28;20100;-51
2022/08/03 07:35:28;;;;;;;7.72;3.40;;;;;;;23.21;59.64;100214.53;5071637;28;20033;-53
2022/08/03 07:37:54;;;;;;;4.95;3.25;;;;;;;23.28;58.90;100202.38;5071794;28;20394;-51
2022/08/03 07:40:19;;;;;;;4.22;3.25;;;;;;;23.36;58.83;100203.00;5071427;28;20037;-61
2022/08/03 07:42:45;;;;;;;5.22;3.20;;;;;;;23.46;58.57;100201.16;5071621;28;20033;-63
2022/08/03 07:45:10;;;;;;;4.82;3.13;;;;;;;23.59;57.75;100201.81;5071554;28;20040;-63
2022/08/03 07:47:35;;;;;;;4.53;3.00;;;;;;;23.82;56.46;100205.03;5071673;28;20454;-63
2022/08/03 07:50:02;;;;;;;4.28;3.03;;;;;;;24.04;56.12;100198.63;5071335;28;20125;-63
2022/08/03 07:55:11;;;;;;;8.05;2.95;;;;;;;24.34;54.44;100192.56;5071414;28;20037;-61
2022/08/03 07:57:36;;;;;;;4.20;2.95;;;;;;;24.29;55.97;100190.59;5053401;28;20454;-62
2022/08/03 08:00:11;;;;;;;3.65;3.03;;;;;;;24.42;53.81;100196.66;5053265;28;20480;-59
2022/08/03 08:02:39;;;;;;;;;;;;;;;24.50;54.41;100196.97;5071813;28;20037;-61
2022/08/03 08:05:05;;;;;;;4.53;3.03;;;;;;;24.53;53.25;100191.00;5071343;28;19924;-62
2022/08/03 08:07:31;;;;;;;10.32;3.60;;;;;;;24.54;53.94;100192.63;5071297;28;20127;-62
2022/08/03 08:09:56;;;;;;;4.82;2.80;;;;;;;24.74;54.14;100191.88;5036460;28;20040;-62
2022/08/03 08:12:22;;;;;;;3.05;2.67;;;;;;;25.11;51.91;100189.00;5071114;28;20066;-62
2022/08/03 08:14:47;;;;;;;4.57;3.10;;;;;;;25.36;50.62;100180.00;5071089;28;20120;-61
2022/08/03 08:17:13;;;;;;;3.88;2.65;;;;;;;25.31;51.21;100179.22;5071212;28;20032;-61
2022/08/03 08:19:38;;;;;;;5.10;2.88;;;;;;;25.33;51.49;100175.09;5070978;28;20508;-62
2022/08/03 08:22:05;;;;;;;5.75;3.13;;;;;;;25.47;50.39;100180.84;5071320;28;20037;-62
2022/08/03 08:24:32;;;;;;;7.13;3.42;;;;;;;25.59;49.82;100183.28;5071300;28;20033;-62
2022/08/03 08:26:59;;;;;;;4.30;2.72;;;;;;;25.95;50.49;100190.38;5053201;28;20044;-64
2022/08/03 08:29:25;;;;;;;6.00;2.60;;;;;;;26.31;49.58;100176.59;5071082;28;20064;-60
2022/08/03 08:31:50;;;;;;;5.63;2.55;;;;;;;26.44;47.92;100178.75;5071352;28;20064;-63
2022/08/03 08:34:35;;;;;;;3.83;2.78;;;;;;;26.52;47.71;100182.81;5071901;28;20493;-63
2022/08/03 08:37:18;;;;;;;5.70;2.70;;;;;;;26.65;47.69;100182.19;5023244;28;20559;-64
2022/08/03 08:39:44;;;;;;;3.97;2.53;;;;;;;26.63;48.40;100175.41;5037425;28;20097;-63
2022/08/03 08:42:09;;;;;;;5.10;2.83;;;;;;;26.84;47.55;100178.81;5053260;28;20040;-61
2022/08/03 08:44:35;;;;;;;3.50;2.70;;;;;;;26.86;47.25;100171.97;5070968;28;20051;-62
2022/08/03 08:47:02;;;;;;;3.38;2.38;;;;;;;27.01;46.31;100179.28;5052782;28;20089;-62
2022/08/03 08:49:28;;;;;;;4.45;2.60;;;;;;;27.11;46.20;100187.41;5071025;28;20024;-60
2022/08/03 08:51:56;;;;;;;3.22;2.70;;;;;;;27.14;47.24;100186.03;5052993;28;20040;-62
2022/08/03 08:54:22;;;;;;;3.83;2.65;;;;;;;27.20;47.78;100185.72;5070974;28;20036;-60
2022/08/03 08:56:50;;;;;;;4.00;2.40;;;;;;;27.61;45.65;100177.16;5070957;28;20081;-61
2022/08/03 08:59:16;;;;;;;4.95;2.78;;;;;;;27.79;45.14;100184.69;5070757;28;20048;-61
2022/08/03 09:01:41;;;;;;;3.25;2.30;;;;;;;28.03;43.24;100181.16;5071074;28;20043;-63
2022/08/03 09:04:08;;;;;;;5.55;2.55;;;;;;;28.05;43.97;100187.16;5070878;28;20036;-62
2022/08/03 09:06:33;;;;;;;4.10;2.50;;;;;;;28.21;43.78;100174.91;5071141;28;20036;-61
2022/08/03 09:08:59;;;;;;;5.00;2.85;;;;;;;28.37;45.45;100183.81;5073455;28;20511;-62
2022/08/03 09:11:24;;;;;;;5.80;2.63;;;;;;;28.84;41.91;100176.59;5074387;28;20044;-62
2022/08/03 09:13:50;;;;;;;3.05;2.38;;;;;;;28.78;42.85;100167.63;5056502;28;20037;-62
2022/08/03 09:16:21;;;;;;;5.45;2.22;;;;;;;28.95;43.54;100171.78;5074276;28;20045;-62
2022/08/03 09:18:52;;;;;;;3.60;2.20;;;;;;;29.16;43.27;100165.72;5074357;28;20066;-63
2022/08/03 09:21:23;;;;;;;3.47;2.10;;;;;;;29.56;43.25;100170.84;5074212;28;20060;-63
2022/08/03 09:23:51;;;;;;;7.13;2.42;;;;;;;29.62;42.02;100161.41;5074507;28;20035;-63
2022/08/03 09:26:25;;;;;;;5.20;2.20;;;;;;;30.02;41.41;100157.09;5056361;28;20032;-63
2022/08/03 09:28:59;;;;;;;4.38;2.20;;;;;;;30.16;40.62;100168.09;5056328;28;20048;-64
2022/08/03 09:31:41;;;;;;;4.15;2.20;;;;;;;30.22;40.48;100164.13;5074121;28;20079;-61
2022/08/03 09:34:10;;;;;;;5.25;2.55;;;;;;;30.14;38.40;100162.09;5056691;28;20393;-66
2022/08/03 09:36:37;;;;;;;2.85;2.20;;;;;;;30.36;38.86;100161.38;5075066;28;20036;-65
2022/08/03 09:39:09;;;;;;;3.67;2.08;;;;;;;30.37;38.24;100152.81;5038868;28;20044;-64
2022/08/03 09:41:39;;;;;;;6.60;2.20;;;;;;;30.56;39.40;100149.94;5056413;28;20028;-63
2022/08/03 09:44:05;;;;;;;5.80;1.73;;;;;;;31.25;38.40;100156.09;5059342;28;20041;-61
2022/08/03 09:46:32;;;;;;;5.20;2.30;;;;;;;31.36;36.71;100156.63;5073969;28;20024;-63
2022/08/03 09:49:11;;;;;;;12.43;2.47;;;;;;;31.56;36.83;100158.03;5073616;28;20036;-60
2022/08/03 09:51:37;;;;;;;2.33;2.08;;;;;;;31.69;35.75;100153.56;5074147;28;20151;-64
2022/08/03 09:54:03;;;;;;;4.10;1.93;;;;;;;31.86;35.90;100149.00;5074117;28;20428;-61
2022/08/03 09:56:46;;;;;;;5.20;2.03;;;;;;;31.79;35.55;100147.81;5073591;28;20052;-61
2022/08/03 09:59:21;;;;;;;3.13;1.80;;;;;;;32.03;37.30;100148.25;5073568;28;20305;-63
2022/08/03 10:01:47;;;;;;;1.83;1.63;;;;;;;32.52;35.38;100137.22;5073632;28;20393;-62
2022/08/03 10:04:15;;;;;;;2.97;1.70;;;;;;;32.88;35.59;100136.94;5073822;28;20044;-66
2022/08/03 10:06:59;;;;;;;4.25;1.60;;;;;;;32.91;35.04;100136.28;5055607;28;20115;-65
2022/08/03 10:09:26;;;;;;;2.42;2.10;;;;;;;33.00;34.10;100142.63;5073429;28;20040;-64
2022/08/03 10:11:51;;;;;;;2.20;1.48;;;;;;;32.94;34.78;100146.69;5055739;28;20036;-65
2022/08/03 10:14:17;;;;;;;2.43;1.43;;;;;;;33.20;34.07;100132.84;5073712;28;20497;-64
2022/08/03 10:16:45;;;;;;;3.00;1.47;;;;;;;33.36;33.47;100130.38;5073533;28;20097;-64
2022/08/03 10:19:11;;;;;;;2.22;1.60;;;;;;;33.70;31.90;100130.28;5073098;28;20037;-64
2022/08/03 10:21:48;;;;;;;2.10;1.50;;;;;;;34.18;30.95;100125.56;5073676;28;20025;-64
2022/08/03 10:24:24;;;;;;;1.95;1.60;;;;;;;34.24;32.47;100115.94;5073990;28;20044;-64
2022/08/03 10:26:50;;;;;;;4.28;1.60;;;;;;;34.33;30.80;100119.44;5039239;28;20056;-65
2022/08/03 10:29:23;;;;;;;3.05;1.55;;;;;;;34.86;30.45;100111.59;5055460;28;20512;-64
2022/08/03 10:31:53;;;;;;;2.67;1.67;;;;;;;35.07;29.57;100101.31;5055277;28;20506;-64
2022/08/03 10:34:25;;;;;;;2.05;1.80;;;;;;;35.49;30.90;100117.84;5055292;28;20032;-65
2022/08/03 10:36:57;;;;;;;3.88;1.75;;;;;;;35.80;29.55;100111.75;5056608;22;20134;-68
2022/08/03 10:39:27;;;;;;;2.90;1.90;;;;;;;35.92;29.73;100109.00;5033140;28;20481;-67
2022/08/03 10:41:56;;;;;;;3.50;2.00;;;;;;;36.26;28.97;100107.72;5033236;28;20104;-67
2022/08/03 10:44:24;;;;;;;4.13;2.05;;;;;;;36.28;29.43;100115.69;5033302;28;20092;-67
2022/08/03 10:46:51;;;;;;;5.43;2.05;;;;;;;36.24;30.25;100110.03;5033157;28;20040;-67
2022/08/03 10:49:17;;;;;;;;;;;;;;;36.38;28.80;100106.88;5033351;28;20044;-67
2022/08/03 10:51:47;;;;;;;2.30;2.00;;;;;;;36.65;28.43;100097.84;5033179;28;20392;-67
2022/08/03 10:57:52;;;;;;;4.43;1.95;;;;;;;36.78;28.85;100095.81;5033119;28;20039;-67
2022/08/03 11:00:22;;;;;;;3.95;2.05;;;;;;;37.36;28.92;100096.25;5032631;28;20099;-67
2022/08/03 11:03:00;;;;;;;3.13;1.90;;;;;;;37.62;27.49;100098.50;5032844;28;20060;-67
2022/08/03 11:05:27;;;;;;;3.67;1.70;;;;;;;37.71;28.24;100096.38;5032939;28;20095;-67
2022/08/03 11:08:18;;;;;;;3.47;1.80;;;;;;;37.32;27.38;100084.22;5032918;28;20041;-67
2022/08/03 11:10:43;;;;;;;2.55;1.55;;;;;;;37.75;28.13;100088.09;5032507;28;20076;-67
2022/08/03 11:13:13;;;;;;;2.05;1.50;;;;;;;38.37;25.87;100094.78;5032656;28;20065;-67
2022/08/03 11:15:38;;;;;;;2.63;1.80;;;;;;;38.76;26.12;100081.72;5032632;28;20088;-67
2022/08/03 11:18:09;;;;;;;4.45;2.08;;;;;;;38.18;25.30;100078.81;5032677;28;20046;-67
2022/08/03 11:20:51;;;;;;;2.92;1.73;;;;;;;38.58;25.75;100074.94;5032263;28;20043;-67
2022/08/03 11:23:19;;;;;;;2.97;1.77;;;;;;;38.76;25.74;100076.13;5032624;28;20518;-67
2022/08/03 11:26:10;;;;;;;3.95;1.80;;;;;;;38.71;26.38;100073.66;5027909;28;20124;-66
2022/08/03 11:28:37;;;;;;;2.33;1.50;;;;;;;38.73;25.75;100073.28;5023354;28;20108;-67
2022/08/03 11:31:21;;;;;;;4.32;1.58;;;;;;;39.36;25.41;100078.47;5016805;28;20030;-67
2022/08/03 11:34:20;;;;;;;1.88;1.60;;;;;;;39.39;25.96;100077.75;5022505;28;20037;-67
2022/08/03 11:37:18;;;;;;;2.85;1.67;;;;;;;39.38;25.11;100075.31;5029526;28;20389;-66
2022/08/03 11:39:48;;;;;;;2.35;1.60;;;;;;;39.68;25.11;100076.25;5021644;28;20297;-66
2022/08/03 11:42:26;;;;;;;3.00;1.58;;;;;;;39.00;25.50;100072.25;5019328;28;20385;-66
2022/08/03 11:44:53;;;;;;;2.28;1.75;;;;;;;39.40;25.15;100065.41;5014249;28;20052;-66
2022/08/03 11:47:25;;;;;;;1.70;1.60;;;;;;;39.39;23.91;100063.81;5027810;28;20034;-66
2022/08/03 11:49:54;;;;;;;4.25;2.00;;;;;;;39.47;23.76;100065.53;5022296;28;20033;-66
2022/08/03 11:52:20;;;;;;;1.75;1.42;;;;;;;39.80;23.94;100066.88;5018379;28;20441;-66
2022/08/03 11:54:49;;;;;;;;;;;;;;;39.97;24.34;100063.53;4999511;28;20453;-66
2022/08/03 11:57:28;;;;;;;2.20;1.80;;;;;;;40.01;24.11;100069.19;5024783;28;19913;-66
2022/08/03 11:59:54;;;;;;;4.20;1.30;;;;;;;38.95;24.15;100057.81;5021032;28;20092;-66
2022/08/03 12:02:19;;;;;;;1.83;1.73;;;;;;;39.40;24.98;100050.69;5020923;28;20741;-67
2022/08/03 12:04:57;;;;;;;2.73;1.67;;;;;;;39.03;24.27;100045.63;5022391;28;20045;-66
2022/08/03 12:07:23;;;;;;;3.05;1.40;;;;;;;39.26;23.78;100045.69;5020347;28;20068;-66
2022/08/03 12:10:11;;;;;;;2.33;1.60;;;;;;;39.71;24.23;100047.63;5021951;28;20057;-66
2022/08/03 12:12:37;;;;;;;1.95;1.55;;;;;;;40.47;23.80;100047.53;5020745;28;20030;-66
2022/08/03 12:15:04;;;;;;;1.98;1.60;;;;;;;39.98;23.92;100050.44;5003292;28;20487;-66
2022/08/03 12:17:33;;;;;;;3.20;1.73;;;;;;;39.84;22.67;100037.06;5021639;28;20091;-66
2022/08/03 12:19:59;;;;;;;2.35;1.65;;;;;;;39.84;23.06;100046.25;5025315;28;20400;-66
2022/08/03 12:22:38;;;;;;;1.73;1.50;;;;;;;40.47;23.32;100047.53;5022258;28;20048;-66
2022/08/03 12:25:05;;;;;;;1.90;1.35;;;;;;;39.65;23.52;100042.75;5020806;28;20430;-66
2022/08/03 12:27:31;;;;;;;3.55;1.60;;;;;;;40.38;23.74;100035.84;5020574;28;20033;-66
2022/08/03 12:29:58;;;;;;;3.70;1.60;;;;;;;40.06;24.05;100036.22;5022255;28;20026;-66
2022/08/03 12:32:25;;;;;;;2.08;1.52;;;;;;;40.55;23.49;100034.47;5022516;28;20052;-67
2022/08/03 12:34:51;;;;;;;1.85;1.65;;;;;;;40.78;23.00;100028.75;5021008;28;20061;-66
2022/08/03 12:37:20;;;;;;;2.78;1.70;;;;;;;41.09;22.23;100021.94;5019417;28;20068;-66
2022/08/03 12:39:54;;;;;;;2.50;1.63;;;;;;;40.72;22.24;100019.94;5021759;28;20026;-66
2022/08/03 12:42:20;;;;;;;1.42;1.33;;;;;;;40.77;22.65;100033.53;5020503;28;20029;-66
2022/08/03 12:44:47;;;;;;;1.80;1.48;;;;;;;40.07;21.92;100029.47;5026266;28;20036;-66
2022/08/03 12:47:14;;;;;;;2.25;1.40;;;;;;;39.57;22.83;100019.50;5026094;28;20096;-66
2022/08/03 12:49:51;;;;;;;2.28;1.50;;;;;;;40.19;23.15;100017.28;5025082;28;20077;-66
2022/08/03 12:52:18;;;;;;;2.83;1.52;;;;;;;40.06;23.33;100016.72;5023440;28;20568;-66
2022/08/03 12:54:58;;;;;;;1.77;1.45;;;;;;;40.34;23.32;100016.25;5042150;28;20487;-66
2022/08/03 12:57:24;;;;;;;2.90;1.77;;;;;;;40.75;22.77;100009.97;5025994;28;20029;-66
2022/08/03 12:59:54;;;;;;;3.38;1.58;;;;;;;41.04;22.56;100011.91;5023193;28;20519;-66
2022/08/03 13:02:24;;;;;;;2.30;1.55;;;;;;;41.11;21.67;100006.38;5024734;28;20566;-66
2022/08/03 13:04:52;;;;;;;1.75;1.50;;;;;;;40.99;22.12;100017.03;5027234;28;20036;-66
2022/08/03 13:07:18;;;;;;;1.50;1.35;;;;;;;41.35;21.69;100010.63;5020304;28;20046;-66
2022/08/03 13:09:51;;;;;;;;;;;;;;;41.30;21.94;100005.34;5022768;28;20063;-66
2022/08/03 13:12:22;;;;;;;2.70;1.60;;;;;;;41.35;22.30;100009.81;5025582;28;20306;-66
2022/08/03 13:14:56;;;;;;;1.83;1.40;;;;;;;41.95;21.48;100004.66;5023940;28;20824;-66
2022/08/03 13:17:22;;;;;;;4.63;1.75;;;;;;;41.62;20.40;100002.81;5025100;28;20399;-66
2022/08/03 13:19:48;;;;;;;1.92;1.48;;;;;;;41.49;20.74;100007.13;5023503;28;20483;-66
2022/08/03 13:22:16;;;;;;;4.88;1.50;;;;;;;41.65;20.93;100007.63;5026004;28;20034;-66
2022/08/03 13:24:44;;;;;;;1.65;1.40;;;;;;;41.12;22.32;100009.97;5024001;28;20467;-66
2022/08/03 13:27:10;;;;;;;1.50;1.40;;;;;;;41.04;22.04;99995.16;5023624;28;20489;-66
2022/08/03 13:29:35;;;;;;;1.30;1.20;;;;;;;41.05;21.86;99999.53;5025077;28;20029;-66
2022/08/03 13:32:01;;;;;;;;;;;;;;;41.14;21.49;100005.59;5020541;28;20110;-66
2022/08/03 13:34:27;;;;;;;2.13;1.50;;;;;;;40.32;22.78;99987.16;5014826;28;19920;-66
2022/08/03 13:36:53;;;;;;;3.33;1.35;;;;;;;40.10;23.21;99997.22;5014619;28;20042;-67
2022/08/03 13:39:21;;;;;;;1.95;1.75;;;;;;;38.80;24.10;99996.31;5014477;28;20092;-66
2022/08/03 13:41:47;;;;;;;1.33;1.23;;;;;;;38.47;24.29;99979.31;5014608;28;20041;-67
2022/08/03 13:44:12;;;;;;;3.15;1.67;;;;;;;37.77;25.09;99977.41;5014722;28;20037;-66
2022/08/03 13:46:38;;;;;;;2.30;1.70;;;;;;;37.98;25.65;99977.91;5014584;28;20079;-66
2022/08/03 13:49:05;;;;;;;2.13;1.65;;;;;;;37.47;25.39;99974.34;5014397;28;20502;-66
2022/08/03 13:51:31;;;;;;;3.55;1.55;;;;;;;37.42;26.65;99969.06;5014544;28;20045;-66
2022/08/03 13:53:58;;;;;;;1.70;1.60;;;;;;;37.30;27.96;99966.34;5014162;28;20034;-66
2022/08/03 13:56:25;;;;;;;1.55;1.40;;;;;;;37.47;27.48;99969.59;5014314;28;20034;-66
2022/08/03 13:58:50;;;;;;;2.20;1.45;;;;;;;37.28;27.72;99960.34;5014243;28;20050;-66
2022/08/03 14:01:16;;;;;;;1.80;1.47;;;;;;;37.26;26.89;99960.72;5014040;28;20038;-66
2022/08/03 14:03:41;;;;;;;2.00;1.63;;;;;;;37.18;27.70;99956.97;5012978;28;20033;-67
2022/08/03 14:06:06;;;;;;;2.80;1.73;;;;;;;36.95;26.74;99965.09;5014246;28;20415;-66
2022/08/03 14:08:32;;;;;;;2.83;1.70;;;;;;;36.91;27.43;99961.44;5014397;28;20041;-66
2022/08/03 14:11:05;;;;;;;2.40;1.47;;;;;;;36.73;26.42;99960.13;5013942;28;20042;-66
2022/08/03 14:13:30;;;;;;;1.98;1.60;;;;;;;36.72;27.96;99958.53;5013119;28;20038;-66
2022/08/03 14:15:56;;;;;;;3.60;1.73;;;;;;;36.77;26.75;99963.78;5014046;28;20114;-66
2022/08/03 14:18:21;;;;;;;2.03;1.63;;;;;;;36.62;26.83;99962.59;5014101;28;20069;-66
2022/08/03 14:20:47;;;;;;;2.17;1.50;;;;;;;36.23;27.66;99960.69;5013690;28;20042;-66
2022/08/03 14:23:13;;;;;;;2.67;1.77;;;;;;;36.28;27.83;99961.25;5014049;28;20115;-66
2022/08/03 14:25:40;;;;;;;2.67;1.60;;;;;;;35.84;27.42;99946.44;5012703;28;20042;-66
2022/08/03 14:28:06;;;;;;;2.17;1.50;;;;;;;35.96;28.10;99951.19;5013978;28;20136;-66
2022/08/03 14:30:32;;;;;;;4.10;1.85;;;;;;;35.84;27.79;99941.72;5012344;28;20046;-66
2022/08/03 14:32:58;;;;;;;2.00;1.77;;;;;;;35.90;27.88;99950.59;5014060;28;20037;-66
2022/08/03 14:35:23;;;;;;;4.07;1.67;;;;;;;35.67;28.23;99944.75;5013621;28;20052;-66
2022/08/03 14:37:49;;;;;;;1.67;1.50;;;;;;;35.50;28.38;99936.69;5013801;28;20100;-66
2022/08/03 14:40:14;;;;;;;3.40;1.80;;;;;;;35.52;28.39;99945.47;5013362;28;20125;-66
2022/08/03 14:42:40;;;;;;;3.60;1.80;;;;;;;35.23;28.67;99944.53;5013494;28;20037;-66
2022/08/03 14:45:05;;;;;;;1.90;1.60;;;;;;;35.45;28.45;99939.69;5013525;28;20069;-66
2022/08/03 14:47:32;;;;;;;1.67;1.50;;;;;;;35.34;28.57;99940.16;5013611;28;20069;-66
2022/08/03 14:49:57;;;;;;;3.72;1.60;;;;;;;35.51;29.09;99938.31;5013243;28;20065;-66
2022/08/03 14:52:23;;;;;;;2.23;1.60;;;;;;;35.50;28.73;99936.69;5013398;28;20065;-66
2022/08/03 14:54:48;;;;;;;3.13;1.33;;;;;;;35.36;29.11;99928.72;5013253;28;20399;-66
2022/08/03 14:57:13;;;;;;;1.50;1.40;;;;;;;35.43;29.17;99936.47;5013349;28;20037;-66
2022/08/03 14:59:39;;;;;;;2.20;1.53;;;;;;;35.49;29.23;99930.38;5012926;28;20041;-66
2022/08/03 15:02:04;;;;;;;3.03;1.63;;;;;;;35.49;29.00;99929.56;5013155;28;20053;-66
2022/08/03 15:04:30;;;;;;;2.60;1.63;;;;;;;35.35;29.06;99938.19;5013109;28;20145;-66
2022/08/03 15:06:55;;;;;;;2.13;1.50;;;;;;;35.32;29.16;99931.38;5012318;28;20080;-66
2022/08/03 15:09:20;;;;;;;2.10;1.70;;;;;;;35.28;29.08;99926.91;5011356;28;20041;-66
2022/08/03 15:11:46;;;;;;;2.07;1.60;;;;;;;35.31;29.95;99918.69;5012958;28;20038;-67
2022/08/03 15:14:11;;;;;;;2.40;1.53;;;;;;;35.39;29.43;99910.59;5013046;28;20057;-66
2022/08/03 15:16:37;;;;;;;7.57;3.23;;;;;;;35.35;29.53;99914.09;5012953;28;20761;-65
2022/08/03 15:19:03;;;;;;;5.38;2.00;;;;;;;35.39;29.61;99913.38;5012778;28;20071;-66
2022/08/03 15:21:29;;;;;;;2.42;1.80;;;;;;;35.34;28.99;99906.94;5012680;28;20038;-65
2022/08/03 15:23:54;;;;;;;4.70;2.27;;;;;;;35.35;29.34;99902.19;5012824;28;20122;-66
2022/08/03 15:26:19;;;;;;;3.73;1.80;;;;;;;35.38;29.40;99901.50;5012646;28;20038;-66
2022/08/03 15:28:45;;;;;;;2.17;1.60;;;;;;;35.37;29.41;99893.53;5012637;28;20091;-66
2022/08/03 15:31:10;;;;;;;2.10;1.90;;;;;;;35.21;29.22;99899.78;5011417;28;20040;-66
2022/08/03 15:33:36;;;;;;;1.80;1.50;;;;;;;35.05;29.24;99896.91;5012739;28;20148;-66
2022/08/03 15:36:02;;;;;;;1.80;1.57;;;;;;;35.14;29.58;99885.69;5012478;28;20030;-66
2022/08/03 15:38:28;;;;;;;3.28;2.00;;;;;;;35.16;29.94;99894.47;5012495;28;20336;-66
2022/08/03 15:40:54;;;;;;;2.30;2.10;;;;;;;35.10;28.98;99892.28;5012108;28;20147;-66
2022/08/03 15:43:20;;;;;;;3.00;1.80;;;;;;;34.91;29.56;99890.06;5012483;28;20053;-65
2022/08/03 15:45:46;;;;;;;;;;;;;;;34.86;30.00;99884.75;5012667;28;20029;-65
2022/08/03 15:48:11;;;;;;;4.03;2.23;;;;;;;34.78;29.45;99890.03;5012345;28;20008;-66
2022/08/03 15:50:37;;;;;;;2.50;2.00;;;;;;;34.79;29.74;99883.34;5012041;28;20073;-66
2022/08/03 15:53:03;;;;;;;5.30;3.57;;;;;;;34.77;29.49;99880.13;5012481;28;20037;-66
2022/08/03 15:55:29;;;;;;;2.35;2.00;;;;;;;34.80;30.14;99882.19;5012259;28;20100;-65
2022/08/03 15:57:55;;;;;;;2.88;2.10;;;;;;;34.80;29.69;99875.88;5011095;28;20140;-65
2022/08/03 16:00:20;;;;;;;4.43;1.90;;;;;;;34.80;29.86;99876.66;5011954;28;20149;-65